Des Moines International Airport
KDSM : now visible

Airfield :











YOU CAN JOIN US ON...

 
LOGIN :

Register | Disclaimer

   EN    FR    IT 

 









Legend :    VFR   Marginal VFR   IFR   Intensive IFR   Very Intensive IFR
Visi :
Ceiling :
>= 8 km
>= 3000ft
5 to 8 km
1000 to 3000 ft
1500m to 5 km
500 to 1000 ft
800 to 1500m
200 to 500 ft
< 800m
< 200 ft
Symbols :   Thunderstorms  Fog  Heavy snow  Heavy precipitations  Wind > 20 kt






- Airport Elevation : 958 ft
- IATA code : DSM


KDSM - Des Moines International

CURRENT METAR :
  • 200354Z 32006KT 10SM CLR M08/M12 A3037 RMK AO2 SLP296 T10781122

EXPIRED METARs :
  • 200254Z 32007KT 10SM CLR M07/M11 A3036 RMK AO2 SLP293 T10721111 50007
  • 200154Z 34008KT 10SM CLR M06/M10 A3036 RMK AO2 SLP295 T10611100

TAF KDSM
Valid from the 20 at 00:00 until the 21 at 00:00 UTC


192332Z 2000/2024 32014G21KT P6SM SCT035
TEMPO 2000/2002 BKN025
FM200300 29008KT P6SM FEW250
FM201300 20011KT P6SM FEW250
FM201700 21017G28KT P6SM SKC WS020/24045KT
FM202200 24014G28KT P6SM SKC
KZMP FIR / North America



MET'MAP, your aeronautical weather chart ! - Copyright ORBIFLY December 2007 - Disclaimer

ORBIFLY MET'MAP TEAM :

Programming & Development : Alexandra Zaïnal
Concept & original design : Baudouin d'Aumeries
Assistance for programming : Marc-Olivier Méhu
Technical & hardware support : Manuel Goepfert

Contact : metmap@orbifly.com




SOURCES & CREDITS :

   NOAA       Earth
Advisory